Terminal Aerodrome Forecast
Issued by NWS Goodland, KS

Home | Current Version | Previous Version | Text Only | Print | Product List | Glossary On
Versions: 1 2 3 4 5 6 7 8 9 10 11 12 13 14 15 16
000
FTUS43 KGLD 012331
TAFGLD
TAF
KGLD 012331Z 0200/0224 VRB05KT P6SM SCT050 OVC090
     FM020500 18006KT P6SM VCSH BKN050
     FM021000 17013KT P6SM SCT015 BKN040
     FM021400 17017G25KT P6SM SCT015 BKN040
     FM021700 18026G39KT P6SM SCT200=

USA.gov is the U.S. government's official web portal to all federal, state and local government web resources and services.